createdAt,value
2022-10-22T00:04:10.302Z,8.80
2022-10-22T00:09:16.340Z,8.77
2022-10-22T00:14:20.582Z,8.73
2022-10-22T00:19:24.353Z,8.13
2022-10-22T00:24:29.139Z,8.65
2022-10-22T00:29:32.779Z,9.70
2022-10-22T00:34:36.165Z,8.07
2022-10-22T00:39:41.009Z,8.35
2022-10-22T00:45:16.713Z,7.90
2022-10-22T00:50:24.455Z,8.68
2022-10-22T00:55:30.798Z,8.57
2022-10-22T01:00:34.322Z,8.73
2022-10-22T01:05:44.119Z,8.55
2022-10-22T01:16:05.379Z,8.13
2022-10-22T01:21:21.485Z,7.75
2022-10-22T01:26:38.081Z,8.93
2022-10-22T01:31:47.833Z,8.95
2022-10-22T01:41:57.104Z,8.77
2022-10-22T01:47:16.282Z,9.77
2022-10-22T01:52:32.447Z,10.02
2022-10-22T01:57:45.058Z,9.95
2022-10-22T02:02:57.091Z,8.52
2022-10-22T02:08:03.980Z,9.85
2022-10-22T02:13:11.210Z,8.18
2022-10-22T02:18:17.222Z,9.80
2022-10-22T02:23:22.061Z,10.40
2022-10-22T02:28:30.404Z,10.45
2022-10-22T02:33:38.386Z,10.38
2022-10-22T02:38:43.096Z,10.38
2022-10-22T02:43:51.302Z,9.23
2022-10-22T02:48:56.130Z,8.45
2022-10-22T02:53:59.435Z,10.23
2022-10-22T02:59:02.789Z,9.30
2022-10-22T03:04:25.795Z,8.23
2022-10-22T03:09:29.239Z,8.63
2022-10-22T03:14:32.599Z,8.45
2022-10-22T03:19:37.425Z,7.90
2022-10-22T03:24:45.412Z,8.10
2022-10-22T03:29:52.094Z,7.97
2022-10-22T03:34:56.855Z,8.27
2022-10-22T03:40:00.376Z,8.55
2022-10-22T03:45:04.002Z,8.63
2022-10-22T03:50:10.245Z,8.85
2022-10-22T03:55:13.622Z,8.45
2022-10-22T04:00:17.456Z,8.55
2022-10-22T04:05:22.153Z,8.52
2022-10-22T04:10:25.489Z,8.98
2022-10-22T04:15:29.180Z,9.07
2022-10-22T04:20:33.903Z,8.75
2022-10-22T04:25:37.741Z,8.88
2022-10-22T04:30:41.102Z,9.35
2022-10-22T04:35:45.814Z,11.00
2022-10-22T04:40:49.177Z,8.02
2022-10-22T04:45:52.543Z,8.68
2022-10-22T04:50:58.514Z,10.02
2022-10-22T04:56:09.483Z,9.40
2022-10-22T05:01:14.997Z,9.43
2022-10-22T05:06:21.035Z,10.98
2022-10-22T05:11:27.898Z,10.88
2022-10-22T05:16:31.805Z,11.52
2022-10-22T05:21:38.608Z,9.18
2022-10-22T05:26:42.314Z,10.30
2022-10-22T05:31:45.724Z,9.77
2022-10-22T05:36:50.571Z,10.07
2022-10-22T05:41:54.508Z,11.07
2022-10-22T05:46:57.913Z,10.18
2022-10-22T05:52:02.798Z,10.02
2022-10-22T05:57:06.120Z,11.30
2022-10-22T06:02:10.602Z,9.98
2022-10-22T06:07:17.487Z,10.70
2022-10-22T06:12:20.922Z,12.93
2022-10-22T06:17:24.310Z,11.85
2022-10-22T06:22:29.050Z,13.23
2022-10-22T06:27:32.668Z,13.20
2022-10-22T06:32:35.996Z,10.23
2022-10-22T06:37:40.986Z,12.10
2022-10-22T06:42:44.781Z,11.57
2022-10-22T06:47:49.010Z,11.85
2022-10-22T06:52:53.910Z,11.27
2022-10-22T06:57:57.509Z,10.77
2022-10-22T07:03:00.859Z,11.60
2022-10-22T07:08:06.270Z,10.82
2022-10-22T07:13:09.636Z,9.90
2022-10-22T07:18:12.988Z,10.93
2022-10-22T07:23:18.555Z,14.25
2022-10-22T07:28:22.236Z,12.43
2022-10-22T07:33:25.585Z,11.52
2022-10-22T07:38:31.709Z,10.85
2022-10-22T07:43:35.058Z,37.60
2022-10-22T07:48:38.580Z,14.20
2022-10-22T07:53:43.546Z,11.85
2022-10-22T07:58:47.071Z,10.57
2022-10-22T08:03:51.190Z,11.05
2022-10-22T08:08:55.950Z,14.30
2022-10-22T08:13:59.483Z,10.23
2022-10-22T08:19:02.813Z,10.98
2022-10-22T08:24:08.792Z,9.70
2022-10-22T08:29:12.540Z,11.55
2022-10-22T08:34:15.904Z,11.63
2022-10-22T08:39:20.649Z,12.30
2022-10-22T08:44:43.923Z,10.95
2022-10-22T08:49:47.698Z,12.43
2022-10-22T08:54:56.078Z,11.38
2022-10-22T09:00:04.389Z,11.82
2022-10-22T09:05:23.308Z,12.38
2022-10-22T09:10:33.819Z,12.77
2022-10-22T09:15:37.163Z,12.10
2022-10-22T09:20:46.618Z,12.20
2022-10-22T09:25:52.752Z,12.63
2022-10-22T09:36:07.806Z,13.35
2022-10-22T09:41:13.179Z,13.90
2022-10-22T09:46:18.777Z,13.77
2022-10-22T09:51:24.543Z,13.50
2022-10-22T09:56:35.774Z,15.02
2022-10-22T10:01:40.907Z,11.45
2022-10-22T10:06:45.824Z,12.73
2022-10-22T10:12:00.987Z,11.77
2022-10-22T10:17:13.179Z,14.07
2022-10-22T10:22:29.216Z,12.40
2022-10-22T10:27:41.255Z,12.70
2022-10-22T10:32:56.740Z,13.48
2022-10-22T10:38:17.008Z,12.82
2022-10-22T10:43:30.845Z,13.95
2022-10-22T10:48:50.177Z,16.00
2022-10-22T10:54:06.827Z,16.77
2022-10-22T10:59:30.046Z,17.20
2022-10-22T11:04:59.820Z,18.35
2022-10-22T11:10:11.318Z,16.73
2022-10-22T11:15:26.702Z,18.15
2022-10-22T11:20:39.181Z,16.52
2022-10-22T11:25:46.655Z,17.80
2022-10-22T11:30:59.326Z,17.02
2022-10-22T11:36:05.020Z,25.17
2022-10-22T11:41:13.758Z,19.33
2022-10-22T11:46:35.749Z,15.93
2022-10-22T11:51:41.179Z,16.23
2022-10-22T11:56:44.859Z,19.55
2022-10-22T12:01:49.761Z,17.38
2022-10-22T12:07:02.424Z,16.90
2022-10-22T12:12:14.797Z,16.05
2022-10-22T12:17:23.196Z,17.08
2022-10-22T12:22:29.539Z,21.35
2022-10-22T12:27:37.891Z,22.58
2022-10-22T12:32:42.787Z,19.58
2022-10-22T12:37:50.307Z,19.58
2022-10-22T12:42:55.920Z,18.48
2022-10-22T12:48:04.077Z,21.25
2022-10-22T12:53:14.791Z,20.33
2022-10-22T12:58:20.301Z,21.25
2022-10-22T13:03:30.907Z,19.65
2022-10-22T13:08:35.537Z,24.42
2022-10-22T13:13:45.921Z,21.15
2022-10-22T13:18:52.350Z,20.40
2022-10-22T13:23:58.628Z,20.48
2022-10-22T13:29:03.915Z,20.17
2022-10-22T13:34:16.415Z,22.63
2022-10-22T13:39:23.003Z,21.65
2022-10-22T13:44:26.518Z,22.92
2022-10-22T13:49:31.336Z,20.00
2022-10-22T13:54:35.243Z,23.98
2022-10-22T13:59:38.807Z,22.95
2022-10-22T14:04:44.851Z,27.60
2022-10-22T14:09:48.281Z,30.70
2022-10-22T14:14:51.772Z,26.48
2022-10-22T14:19:56.540Z,23.90
2022-10-22T14:24:59.881Z,25.88
2022-10-22T14:30:03.551Z,25.58
2022-10-22T14:35:13.292Z,25.25
2022-10-22T14:40:23.458Z,29.98
2022-10-22T14:45:28.332Z,25.30
2022-10-22T14:50:33.102Z,28.77
2022-10-22T14:55:36.766Z,34.78
2022-10-22T15:00:41.954Z,27.90
2022-10-22T15:05:46.921Z,26.95
2022-10-22T15:10:59.948Z,30.85
2022-10-22T15:16:07.738Z,32.80
2022-10-22T15:21:16.774Z,33.47
2022-10-22T15:26:20.345Z,41.23
2022-10-22T15:31:48.518Z,33.50
2022-10-22T15:36:56.393Z,35.40
2022-10-22T15:42:00.901Z,39.53
2022-10-22T15:47:06.444Z,35.60
2022-10-22T15:52:11.326Z,43.55
2022-10-22T15:57:14.717Z,38.28
2022-10-22T16:02:18.285Z,38.85
2022-10-22T16:07:24.710Z,37.45
2022-10-22T16:12:28.609Z,40.78
2022-10-22T16:17:31.996Z,40.55
2022-10-22T16:22:36.759Z,40.65
2022-10-22T16:27:40.504Z,43.58
2022-10-22T16:32:43.987Z,42.08
2022-10-22T16:37:48.982Z,47.30
2022-10-22T16:42:52.878Z,47.53
2022-10-22T16:47:56.259Z,60.05
2022-10-22T16:53:00.996Z,53.88
2022-10-22T16:58:04.566Z,46.20
2022-10-22T17:03:08.079Z,43.83
2022-10-22T17:08:12.848Z,44.30
2022-10-22T17:13:16.243Z,45.75
2022-10-22T17:18:19.626Z,45.10
2022-10-22T17:23:24.366Z,45.70
2022-10-22T17:28:28.156Z,49.88
2022-10-22T17:33:32.537Z,60.35
2022-10-22T17:38:37.495Z,53.47
2022-10-22T17:43:41.271Z,54.72
2022-10-22T17:48:44.685Z,52.67
2022-10-22T17:53:50.788Z,48.65
2022-10-22T17:58:54.786Z,53.35
2022-10-22T18:04:01.667Z,57.33
2022-10-22T18:09:07.548Z,57.53
2022-10-22T18:14:11.035Z,57.35
2022-10-22T18:19:16.622Z,60.53
2022-10-22T18:24:21.396Z,66.97
2022-10-22T18:29:24.764Z,62.08
2022-10-22T18:34:29.345Z,58.47
2022-10-22T18:39:35.521Z,56.42
2022-10-22T18:44:39.124Z,61.90
2022-10-22T18:49:42.577Z,60.10
2022-10-22T18:54:47.458Z,58.58
2022-10-22T18:59:52.027Z,64.38
2022-10-22T19:04:57.100Z,63.83
2022-10-22T19:10:01.890Z,56.65
2022-10-22T19:15:05.994Z,49.83
2022-10-22T19:20:10.515Z,51.35
2022-10-22T19:25:15.306Z,49.50
2022-10-22T19:30:20.296Z,50.78
2022-10-22T19:35:23.701Z,56.78
2022-10-22T19:40:28.458Z,52.17
2022-10-22T19:45:32.041Z,50.65
2022-10-22T19:50:36.027Z,56.05
2022-10-22T19:55:45.203Z,49.97
2022-10-22T20:00:49.218Z,52.33
2022-10-22T20:05:53.138Z,53.85
2022-10-22T20:10:58.127Z,53.53
2022-10-22T20:16:02.054Z,56.13
2022-10-22T20:21:06.034Z,50.58
2022-10-22T20:26:11.203Z,44.72
2022-10-22T20:31:17.405Z,46.38
2022-10-22T20:36:22.860Z,40.08
2022-10-22T20:41:30.921Z,46.97
2022-10-22T20:46:35.157Z,40.97
2022-10-22T20:51:39.175Z,46.28
2022-10-22T20:56:44.384Z,41.05
2022-10-22T21:01:49.378Z,44.75
2022-10-22T21:06:53.589Z,44.28
2022-10-22T21:12:03.213Z,44.85
2022-10-22T21:17:08.209Z,44.08
2022-10-22T21:22:11.623Z,41.45
2022-10-22T21:27:16.365Z,47.33
2022-10-22T21:32:19.866Z,43.20
2022-10-22T21:37:23.475Z,46.60
2022-10-22T21:42:28.462Z,43.40
2022-10-22T21:47:31.924Z,44.35
2022-10-22T21:52:35.362Z,41.03
2022-10-22T21:57:40.465Z,44.00
2022-10-22T22:02:44.203Z,44.83
2022-10-22T22:07:47.753Z,39.22
2022-10-22T22:12:56.317Z,37.78
2022-10-22T22:17:59.731Z,39.95
2022-10-22T22:23:03.141Z,37.63
2022-10-22T22:28:07.955Z,35.95
2022-10-22T22:33:11.296Z,35.53
2022-10-22T22:38:14.646Z,36.20
2022-10-22T22:43:19.416Z,37.00
2022-10-22T22:48:22.755Z,40.45
2022-10-22T22:53:26.158Z,38.33
2022-10-22T22:58:30.887Z,38.22
2022-10-22T23:03:34.268Z,38.75
2022-10-22T23:08:37.740Z,34.17
2022-10-22T23:13:43.569Z,36.17
2022-10-22T23:18:48.673Z,36.10
2022-10-22T23:23:55.437Z,34.90
2022-10-22T23:29:05.146Z,37.80
2022-10-22T23:34:08.724Z,36.63
2022-10-22T23:39:13.985Z,36.20
2022-10-22T23:44:18.855Z,36.00
2022-10-22T23:49:22.357Z,35.17
2022-10-22T23:54:25.735Z,36.90
2022-10-22T23:59:30.749Z,39.15
